首页
METAR-TAF:

METAR-TAF

机场 :

Baker City, 俄勒冈州, 美国

纬度: 44-50-14N, 经度: 117-48-33W, 海拔: 1028米

当前天气观测

该预报发布于24分钟前的15:53 UTC
风速5节,风向西转西南
温度 24°C
湿度 44%
气压 1020 hPa
能見度: 16.1公里
天空无云

METAR: KBKE 211553Z AUTO 25005KT 10SM CLR 24/11 A3011 RMK AO2 SLP164 T02390111

时间: 09:17 (16:17 UTC)

预报

该预报发布于4小时和45分钟前的11:32 UTC
预报有效从21日的 12点(UTC)到 22日的 12点(UTC)
风速6节,风向多变
能見度: 10公里
散云层高于10000英尺
从 21日的 2300点(UTC)
风速10节,风向北转西北,有时为17节阵风
能見度: 10公里
散云层高于10000英尺
多云层高于20000英尺
从 22日的 0500点(UTC)
风速6节,风向多变
能見度: 9.7公里
散云层高于3500英尺
烟,

TAF: KBKE 211132Z 2112/2212 VRB06KT P6SM SCT100 FM212300 33010G17KT P6SM SCT100 BKN200 FM220500 VRB06KT 6SM FU SCT035

超过4000个机场的气象观测和天气预报(METAR&TAF报告)。

可查询的气象台以黄色和红色小点在地图上表示。

将鼠标移到小点上方,可查看气象台名称。

然后点击查看天气观测和预报。

如需切换地图:点击带黑十字的绿色按钮放大地图;点击带横线的绿色按钮缩小地图;或者点击绿色箭头查看邻近地区的地图。


METAR-TAF: